Have a Safe July 4th! 

Flight Track Log - Related Links

Times and Time Zones

All times are in EDT time to prevent confusion due to time zone crossing. See the GJS3707 flight status page for this flight to view local times or setup timezone preferences in your user account.

Time Position Orientation Groundspeed Altitude Reporting Facility
EDT Latitude Longitude Course Direction KTS MPH feet Rate Location/Type
Sat 03:34:14 PM 43.6347 -116.3042 348° North 235 270 6,700  Level Salt Lake Center
Sat 03:35:00 PM 43.8425 -115.6224 65° Northeast  Level FlightAware Approximate
Sat 03:35:16 PM 43.6725 -116.2253 56° Northeast 259 298 8,700  Level Salt Lake Center
Sat 03:36:00 PM 43.9158 -115.4742 59° Northeast  Level FlightAware Approximate
Sat 03:36:19 PM 43.7189 -116.1222 58° Northeast 282 325 10,700  Level Salt Lake Center
Sat 03:37:00 PM 43.9823 -115.3189 55° Northeast  Level FlightAware Approximate
Sat 03:37:20 PM 43.7678 -116.0194 57° Northeast 330 380 11,900  Level Salt Lake Center
Sat 03:38:00 PM 44.0562 -115.1712 55° Northeast  Level FlightAware Approximate
Sat 03:38:22 PM 43.8275 -115.8808 59° Northeast 381 438 13,400  Level Salt Lake Center
Sat 03:39:24 PM 43.8850 -115.7578 57° Northeast 397 457 14,700 1,452 Climbing Salt Lake Center
Sat 03:40:26 PM 43.9489 -115.6011 60° Northeast 416 479 16,400 1,597 Climbing Salt Lake Center
Sat 03:41:28 PM 43.9825 -115.4522 73° East 426 490 18,000 1,694 Climbing Salt Lake Center
Sat 03:42:30 PM 44.0025 -115.2686 81° East 430 495 19,900 1,707 Climbing Salt Lake Center
Sat 03:43:31 PM 44.0200 -115.1131 81° East 428 493 21,500 1,707 Climbing Salt Lake Center
Sat 03:44:33 PM 44.0403 -114.9300 81° East 430 495 23,400 1,548 Climbing Salt Lake Center
Sat 03:45:35 PM 44.0564 -114.7728 82° East 430 495 24,700 1,161 Climbing Salt Lake Center
Sat 03:46:37 PM 44.0697 -114.5850 84° East 437 503 25,800 1,016 Climbing Salt Lake Center
Sat 03:47:39 PM 44.0781 -114.4189 86° East 447 514 26,800 1,016 Climbing Salt Lake Center
Sat 03:48:41 PM 44.0864 -114.2228 87° East 455 524 27,900 1,016 Climbing Salt Lake Center
Sat 03:49:43 PM 44.0936 -114.0519 87° East 460 529 28,900 976 Climbing Salt Lake Center
Sat 03:50:44 PM 44.1017 -113.8536 87° East 464 534 29,900 829 Climbing Salt Lake Center
Sat 03:51:46 PM 44.1094 -113.6797 86° East 468 539 30,600 677 Climbing Salt Lake Center
Sat 03:52:48 PM 44.1169 -113.5022 87° East 477 549 31,300 726 Climbing Salt Lake Center
Sat 03:53:50 PM 44.1208 -113.2931 88° East 484 557 32,100 677 Climbing Salt Lake Center
Sat 03:54:52 PM 44.1275 -113.1125 87° East 489 563 32,700 677 Climbing Salt Lake Center
Sat 03:55:54 PM 44.1369 -112.9017 86° East 489 563 33,500 732 Climbing Salt Lake Center
Sat 03:56:55 PM 44.1422 -112.7189 88° East 494 568 34,200 732 Climbing Salt Lake Center
Sat 03:57:57 PM 44.1472 -112.5067 88° East 492 566 35,000 387 Climbing Salt Lake Center
Sat 03:58:59 PM 44.1528 -112.3214 88° East 499 574 35,000  Level Salt Lake Center
Sat 04:00:01 PM 44.1581 -112.1000 88° East 511 588 35,000  Level Salt Lake Center
Sat 04:01:02 PM 44.1639 -111.9072 88° East 521 600 35,000  Level Salt Lake Center
Sat 04:02:04 PM 44.1694 -111.6781 88° East 531 611 35,000  Level Salt Lake Center
Sat 04:03:06 PM 44.1733 -111.4814 88° East 536 617 35,000  Level Salt Lake Center
Sat 04:04:08 PM 44.1781 -111.2517 88° East 537 618 35,000  Level Salt Lake Center
Sat 04:05:10 PM 44.1817 -111.0550 88° East 535 616 35,000  Level Salt Lake Center
Sat 04:06:11 PM 44.1847 -110.8236 89° East 538 619 35,000  Level Salt Lake Center
Sat 04:07:13 PM 44.1875 -110.6244 89° East 540 621 35,000 339 Level Salt Lake Center
Sat 04:08:15 PM 44.1919 -110.4244 88° East 540 621 35,700 968 Climbing Salt Lake Center
Sat 04:09:17 PM 44.1944 -110.2014 89° East 519 597 37,000 634 Climbing Salt Lake Center
Sat 04:10:18 PM 44.1956 -110.0125 89° East 512 589 37,000  Level Salt Lake Center
Sat 04:11:20 PM 44.1969 -109.7842 89° East 527 606 37,000  Level Salt Lake Center
Sat 04:12:22 PM 44.1983 -109.5878 89° East 533 613 37,000  Level Salt Lake Center
Sat 04:13:23 PM 44.1967 -109.3783 91° East 528 608 37,000  Level Salt Lake Center
Sat 04:14:25 PM 44.1975 -109.1756 90° East 527 606 37,000  Level Salt Lake Center
Sat 04:15:27 PM 44.1978 -108.9703 90° East 531 611 37,000  Level Salt Lake Center
Sat 04:16:29 PM 44.1961 -108.7250 90° East 531 611 37,000  Level Salt Lake Center
Sat 04:17:30 PM 44.1961 -108.5231 90° East 527 606 37,000  Level Salt Lake Center
Sat 04:18:32 PM 44.1947 -108.3186 90° East 531 611 37,000  Level Salt Lake Center
Sat 04:19:34 PM 44.1928 -108.1150 91° East 531 611 37,000  Level Salt Lake Center
Sat 04:20:36 PM 44.1894 -107.9139 91° East 528 608 37,000  Level Salt Lake Center
Sat 04:21:37 PM 44.1869 -107.7103 91° East 528 608 37,000  Level Salt Lake Center
Sat 04:22:39 PM 44.1850 -107.4653 91° East 532 612 37,000  Level Salt Lake Center
Sat 04:23:41 PM 44.1806 -107.2619 92° East 531 611 37,000  Level Salt Lake Center
Sat 04:24:42 PM 44.1772 -107.0589 91° East 529 609 37,000  Level Salt Lake Center
Sat 04:25:44 PM 44.1744 -106.8547 91° East 531 611 37,000  Level Salt Lake Center
Sat 04:26:46 PM 44.1711 -106.6497 91° East 532 612 37,000  Level Salt Lake Center
Sat 04:27:48 PM 44.1669 -106.4453 92° East 531 611 37,000  Level Salt Lake Center
Sat 04:28:58 PM 44.1617 -106.1708 91° East 528 608 37,000  Level Denver Center
Sat 04:29:59 PM 44.1561 -105.9781 92° East 525 604 37,000  Level Denver Center
Sat 04:31:01 PM 44.1508 -105.7850 92° East 521 600 37,000  Level Denver Center
Sat 04:32:03 PM 44.1436 -105.5586 92° East 523 602 37,000  Level Denver Center
Sat 04:33:05 PM 44.1378 -105.3661 92° East 521 600 37,000  Level Denver Center
Sat 04:34:06 PM 44.1303 -105.1419 93° East 520 598 37,000  Level Denver Center
Sat 04:35:08 PM 44.1222 -104.9503 93° East 518 596 37,000  Level Denver Center
Sat 04:36:10 PM 44.1153 -104.7586 93° East 517 595 37,000  Level Denver Center
Sat 04:37:12 PM 44.1067 -104.5331 93° East 520 598 37,000  Level Denver Center
Sat 04:38:13 PM 44.0989 -104.3414 93° East 519 597 37,000  Level Denver Center
Sat 04:39:15 PM 44.0892 -104.1200 93° East 514 592 37,000  Level Denver Center
Sat 04:40:17 PM 44.0797 -103.9289 94° East 516 594 37,000  Level Denver Center
Sat 04:41:19 PM 44.0703 -103.7050 93° East 517 595 37,000  Level Denver Center
Sat 04:42:20 PM 44.0603 -103.5131 94° East 518 596 37,000  Level Denver Center
Sat 04:43:22 PM 44.0514 -103.3233 94° East 517 595 37,000  Level Denver Center
Sat 04:44:24 PM 44.0419 -103.1017 93° East 514 592 37,000  Level Denver Center
Sat 04:45:25 PM 44.0311 -102.9106 94° East 516 594 37,000  Level Denver Center
Sat 04:46:27 PM 44.0206 -102.7050 94° East 514 592 37,000  Level Denver Center
Sat 04:47:29 PM 44.0056 -102.5044 96° East 518 596 37,000  Level Denver Center
Sat 04:48:31 PM 43.9922 -102.3044 95° East 521 600 37,000  Level Denver Center
Sat 04:49:32 PM 43.9797 -102.1067 95° East 519 597 37,000  Level Denver Center
Sat 04:50:34 PM 43.9628 -101.8672 96° East 519 597 37,000  Level Denver Center
Sat 04:51:36 PM 43.9542 -101.6750 93° East 510 587 37,000  Level Denver Center
Sat 04:52:38 PM 43.9403 -101.4781 96° East 516 594 37,000  Level Denver Center
Sat 04:53:39 PM 43.9336 -101.2831 93° East 513 590 37,000  Level Denver Center
Sat 04:54:37 PM 43.9264 -101.0900 93° East 510 587 37,000  Level Minneapolis Center
Sat 04:55:39 PM 43.9194 -100.8947 93° East 509 586 37,000  Level Minneapolis Center
Sat 04:56:41 PM 43.9108 -100.7014 93° East 507 583 37,000  Level Minneapolis Center
Sat 04:57:43 PM 43.8975 -100.5053 95° East 511 588 37,000  Level Minneapolis Center
Sat 04:58:45 PM 43.8850 -100.3131 95° East 507 583 37,000  Level Minneapolis Center
Sat 04:59:47 PM 43.8697 -100.0808 95° East 506 582 37,000  Level Minneapolis Center
Sat 05:00:49 PM 43.8589 -99.9286 96° East 503 579 37,000  Level Minneapolis Center
Sat 05:02:04 PM 43.8386 -99.6569 96° East 507 583 37,000  Level Minneapolis Center
Sat 05:03:06 PM 43.8239 -99.4639 96° East 507 583 37,000  Level Minneapolis Center
Sat 05:04:08 PM 43.8094 -99.2703 96° East 508 585 37,000  Level Minneapolis Center
Sat 05:05:10 PM 43.7919 -99.0394 96° East 505 581 37,000  Level Minneapolis Center
Sat 05:06:12 PM 43.7772 -98.8464 96° East 506 582 37,000  Level Minneapolis Center
Sat 05:07:14 PM 43.7631 -98.6636 96° East 505 581 37,000  Level Minneapolis Center
Sat 05:08:16 PM 43.7458 -98.4717 97° East 505 581 37,000  Level Minneapolis Center
Sat 05:09:18 PM 43.7269 -98.2408 96° East 506 582 37,000  Level Minneapolis Center
Sat 05:10:20 PM 43.7106 -98.0500 97° East 503 579 37,000  Level Minneapolis Center
Sat 05:11:22 PM 43.6936 -97.8606 97° East 500 575 37,000  Level Minneapolis Center
Sat 05:12:24 PM 43.6769 -97.6700 97° East 501 577 37,000  Level Minneapolis Center
Sat 05:13:26 PM 43.6589 -97.4803 97° East 501 577 37,000  Level Minneapolis Center
Sat 05:14:28 PM 43.6411 -97.2925 97° East 497 572 37,000  Level Minneapolis Center
Sat 05:15:30 PM 43.6192 -97.0639 97° East 501 577 37,000  Level Minneapolis Center
Sat 05:16:32 PM 43.6008 -96.8744 98° East 502 578 37,000  Level Minneapolis Center
Sat 05:17:34 PM 43.5819 -96.6881 98° East 498 573 37,000  Level Minneapolis Center
Sat 05:18:36 PM 43.5625 -96.5000 98° East 498 573 37,000  Level Minneapolis Center
Sat 05:19:38 PM 43.5431 -96.3125 98° East 499 574 37,000  Level Minneapolis Center
Sat 05:20:40 PM 43.5211 -96.0869 98° East 501 577 37,000  Level Minneapolis Center
Sat 05:21:42 PM 43.4997 -95.9019 99° East 498 573 37,000  Level Minneapolis Center
Sat 05:22:56 PM 43.4794 -95.7175 99° East 493 567 37,000  Level Minneapolis Center
Sat 05:23:58 PM 43.4561 -95.4914 98° East 499 574 37,000  Level Minneapolis Center
Sat 05:25:00 PM 43.4353 -95.3061 99° East 495 570 37,000  Level Minneapolis Center
Sat 05:26:02 PM 43.4094 -95.0806 99° East 499 574 37,000  Level Minneapolis Center
Sat 05:27:04 PM 43.3878 -94.8947 99° East 497 572 37,000  Level Minneapolis Center
Sat 05:28:06 PM 43.3656 -94.7100 99° East 495 570 37,000  Level Minneapolis Center
Sat 05:29:08 PM 43.3436 -94.5231 99° East 496 571 37,000  Level Minneapolis Center
Sat 05:30:10 PM 43.3217 -94.3389 99° East 493 567 37,000  Level Minneapolis Center
Sat 05:31:12 PM 43.2969 -94.1500 100° East 494 568 37,000  Level Minneapolis Center
Sat 05:32:14 PM 43.2753 -93.9658 99° East 495 570 37,000  Level Minneapolis Center
Sat 05:33:28 PM 43.2469 -93.7503 100° East 487 560 37,000  Level Minneapolis Center
Sat 05:34:30 PM 43.2197 -93.5331 100° East 487 560 37,000  Level Minneapolis Center
Sat 05:35:32 PM 43.1964 -93.3528 100° East 485 558 37,000  Level Minneapolis Center
Sat 05:36:34 PM 43.1736 -93.1742 100° East 483 556 37,000  Level Minneapolis Center
Sat 05:37:36 PM 43.1497 -92.9953 100° East 482 555 37,000 -484 Level Minneapolis Center
Sat 05:38:38 PM 43.1208 -92.7817 100° East 481 554 36,000 -1,355 Descending Minneapolis Center
Sat 05:39:40 PM 43.0969 -92.6061 100° East 475 547 34,200 -1,742 Descending Minneapolis Center
Sat 05:40:42 PM 43.0731 -92.4342 101° East 467 537 32,400 -1,831 Descending Minneapolis Center
Sat 05:41:38 PM 43.0475 -92.2625 101° East 459 528 30,600 -1,756 Descending Chicago Center
Sat 05:42:45 PM 43.0256 -92.0981 100° East 453 521 28,800 -1,535 Descending Minneapolis Center
Sat 05:43:47 PM 43.0031 -91.9353 101° East 444 511 27,300 -908 Descending Minneapolis Center
Sat 05:44:44 PM 42.9800 -91.7736 101° East 436 502 27,000 -145 Descending Chicago Center
Sat 05:45:51 PM 42.9539 -91.5869 101° East 413 475 27,000  Level Minneapolis Center
Sat 05:46:53 PM 42.9322 -91.4425 102° East 388 447 27,000  Level Minneapolis Center
Sat 05:47:49 PM 42.9158 -91.3339 102° East 373 429 27,000  Level Chicago Center
Sat 05:48:51 PM 42.8903 -91.1725 102° East 366 421 27,000  Level Chicago Center
Sat 05:49:53 PM 42.8697 -91.0386 102° East 362 417 27,000  Level Chicago Center
Sat 05:50:54 PM 42.8503 -90.9061 101° East 359 413 27,000  Level Chicago Center
Sat 05:51:56 PM 42.8289 -90.7733 102° East 361 415 27,000  Level Chicago Center
Sat 05:52:58 PM 42.8092 -90.6425 102° East 358 412 27,000  Level Chicago Center
Sat 05:53:59 PM 42.7867 -90.5117 103° East 355 409 27,000  Level Chicago Center
Sat 05:55:01 PM 42.7639 -90.3572 101° East 355 409 27,000  Level Chicago Center
Sat 05:56:03 PM 42.7436 -90.2322 102° East 343 395 27,000  Level Chicago Center
Sat 05:57:05 PM 42.7253 -90.1067 101° East 342 394 27,000  Level Chicago Center
Sat 05:58:06 PM 42.7036 -89.9839 103° East 339 390 27,000  Level Chicago Center
Sat 05:59:08 PM 42.6825 -89.8594 103° East 336 387 27,000  Level Chicago Center
Sat 06:00:10 PM 42.6594 -89.7183 102° East 330 380 27,000 -48 Level Chicago Center
Sat 06:01:12 PM 42.6392 -89.5961 103° East 330 380 26,900 -390 Descending Chicago Center
Sat 06:02:13 PM 42.6189 -89.4714 102° East 337 388 26,200 -439 Descending Chicago Center
Sat 06:03:15 PM 42.5981 -89.3436 102° East 345 397 26,000 -97 Descending Chicago Center
Sat 06:04:17 PM 42.5769 -89.2211 103° East 334 384 26,000  Level Chicago Center
Sat 06:05:19 PM 42.5542 -89.0847 103° East 321 369 26,000  Level Chicago Center
Sat 06:06:20 PM 42.4769 -89.0328 154° Southeast 338 389 26,000  Level Chicago Center
Sat 06:07:22 PM 42.4275 -89.1361 237° Southwest 361 415 26,000  Level Chicago Center
Sat 06:08:24 PM 42.4489 -89.2642 283° West 350 403 26,000  Level Chicago Center
Sat 06:09:26 PM 42.4714 -89.3958 283° West 357 411 26,000  Level Chicago Center
Sat 06:10:28 PM 42.4936 -89.5314 283° West 366 421 26,000  Level Chicago Center
Sat 06:11:29 PM 42.5386 -89.6469 298° West 349 402 26,000  Level Chicago Center
Sat 06:12:31 PM 42.6250 -89.6219 12° North 296 341 26,000  Level Chicago Center
Sat 06:13:33 PM 42.6250 -89.5150 90° East 296 341 26,000  Level Chicago Center
Sat 06:14:35 PM 42.6078 -89.4097 102° East 289 333 26,000  Level Chicago Center
Sat 06:15:36 PM 42.5903 -89.3014 102° East 292 336 26,000  Level Chicago Center
Sat 06:16:38 PM 42.5719 -89.1958 103° East 290 334 26,000  Level Chicago Center
Sat 06:17:40 PM 42.5544 -89.0942 103° East 282 325 26,000  Level Chicago Center
Sat 06:18:42 PM 42.4700 -89.0622 164° South 333 383 26,000  Level Chicago Center
Sat 06:19:43 PM 42.4558 -89.1819 261° West 348 400 26,000  Level Chicago Center
Sat 06:20:45 PM 42.4800 -89.3103 284° West 352 405 26,000  Level Chicago Center
Sat 06:21:47 PM 42.5172 -89.4306 293° West 344 396 26,000 -290 Level Chicago Center
Sat 06:22:49 PM 42.5658 -89.5428 300° West 342 394 25,400 -774 Descending Chicago Center
Sat 06:23:51 PM 42.6169 -89.6511 303° West 340 391 24,400 -683 Descending Chicago Center
Sat 06:24:52 PM 42.6722 -89.7583 305° West 343 395 24,000 -195 Descending Chicago Center
Sat 06:25:54 PM 42.7417 -89.8719 310° West 340 391 24,000  Level Chicago Center
Sat 06:26:56 PM 42.8006 -89.8222 32° Northeast 294 338 24,000 -435 Level Chicago Center
Sat 06:27:58 PM 42.7656 -89.7197 115° Southeast 308 354 23,100 -1,887 Descending Chicago Center
Sat 06:29:00 PM 42.7294 -89.6069 114° Southeast 323 372 20,100 -3,048 Descending Chicago Center
Sat 06:30:02 PM 42.6883 -89.4864 115° Southeast 349 402 16,800 -3,581 Descending Chicago Center
Sat 06:31:04 PM 42.6392 -89.3392 114° Southeast 366 421 12,700 -2,806 Descending Chicago Center
Sat 06:32:06 PM 42.5958 -89.2142 115° Southeast 366 421 11,000 -1,210 Descending Chicago Center
Sat 06:33:08 PM 42.5578 -89.1061 116° Southeast 325 374 10,200 -1,016 Descending Chicago Center
Sat 06:34:10 PM 42.5289 -89.0111 112° Southeast 281 323 8,900 -1,366 Descending Chicago Center
Sat 06:35:11 PM 42.5014 -88.9186 112° Southeast 267 307 7,400 -927 Descending Chicago Center
Sat 06:36:13 PM 42.4736 -88.8258 112° Southeast 266 306 7,000 -194 Descending Chicago Center
Sat 06:37:15 PM 42.4403 -88.7178 113° Southeast 266 306 7,000  Level Chicago Center
Sat 06:38:17 PM 42.4122 -88.6244 112° Southeast 268 308 7,000  Level Chicago Center
Sat 06:39:19 PM 42.3831 -88.5347 114° Southeast 265 305 7,000  Level Chicago Center
Sat 06:40:20 PM 42.3383 -88.4600 129° Southeast 262 302 7,000  Level Chicago Center
Sat 06:41:22 PM 42.2919 -88.3708 125° Southeast 265 305 7,000 -194 Level Chicago Center
Sat 06:42:24 PM 42.2478 -88.2903 127° Southeast 269 310 6,600 -532 Descending Chicago Center
Sat 06:43:26 PM 42.2056 -88.2114 126° Southeast 263 303 5,900 -629 Descending Chicago Center
Sat 06:44:28 PM 42.1617 -88.1342 127° Southeast 262 302 5,300 -581 Descending Chicago Center

Login

Don't have an account? Register now (free) for customized features, flight alerts, and more!